CPA225 YSSY-YMML
Flight info
| Callsign | CPA225 |
|---|---|
| Flight time | N/A |
| Altitude | 30000 |
| Route | WOL2 WOL H65 LEECE Q29 ML DCT |
| Aircraft | B77W/H-SDE1E2E3FGHIJ2J3J4J5M1RWXY/LB1D1 |
Departure
| Time | 2026-05-06 12:20 |
|---|---|
| Airport | Sydney Kingsford Smith International Airport (YSSY) |
Arrival
| Time | N/A |
|---|---|
| Airport | Melbourne Airport (YMML) |
| Time | Latitude | Longitude | Altitude | Speed | Heading |
|---|---|---|---|---|---|
| 2026-05-06 11:54 | -33.93731 | 151.16943 | 33 ft | 0 kts | 254° |
| 2026-05-06 12:04 | -33.93729 | 151.16959 | 33 ft | 2 kts | 266° |
| 2026-05-06 12:04 | -33.93728 | 151.16975 | 32 ft | 2 kts | 266° |
| 2026-05-06 12:04 | -33.93727 | 151.16994 | 32 ft | 2 kts | 264° |
| 2026-05-06 12:04 | -33.93726 | 151.17012 | 31 ft | 2 kts | 264° |
| 2026-05-06 12:05 | -33.93725 | 151.17023 | 31 ft | 1 kts | 256° |
| 2026-05-06 12:05 | -33.93718 | 151.17033 | 30 ft | 1 kts | 195° |
| 2026-05-06 12:05 | -33.93710 | 151.17033 | 30 ft | 1 kts | 165° |
| 2026-05-06 12:05 | -33.93706 | 151.17033 | 30 ft | 0 kts | 167° |
| 2026-05-06 12:06 | -33.93722 | 151.17038 | 30 ft | 5 kts | 167° |
| 2026-05-06 12:06 | -33.93779 | 151.17053 | 29 ft | 11 kts | 167° |
| 2026-05-06 12:07 | -33.93868 | 151.17075 | 29 ft | 13 kts | 169° |
| 2026-05-06 12:07 | -33.93963 | 151.17104 | 29 ft | 14 kts | 149° |
| 2026-05-06 12:07 | -33.93970 | 151.17226 | 25 ft | 17 kts | 76° |
| 2026-05-06 12:07 | -33.93967 | 151.17242 | 25 ft | 0 kts | 76° |
| 2026-05-06 12:10 | -33.93954 | 151.17300 | 22 ft | 13 kts | 75° |
| 2026-05-06 12:10 | -33.93916 | 151.17464 | 17 ft | 26 kts | 73° |
| 2026-05-06 12:10 | -33.93862 | 151.17700 | 16 ft | 22 kts | 98° |
| 2026-05-06 12:10 | -33.93979 | 151.17795 | 18 ft | 21 kts | 166° |
| 2026-05-06 12:11 | -33.94132 | 151.17837 | 21 ft | 22 kts | 168° |
| 2026-05-06 12:11 | -33.94294 | 151.17880 | 27 ft | 25 kts | 169° |
| 2026-05-06 12:11 | -33.94483 | 151.17891 | 32 ft | 31 kts | 191° |
| 2026-05-06 12:11 | -33.94694 | 151.17928 | 33 ft | 30 kts | 168° |
| 2026-05-06 12:12 | -33.94903 | 151.17976 | 33 ft | 30 kts | 171° |
| 2026-05-06 12:12 | -33.95092 | 151.18069 | 28 ft | 29 kts | 104° |
| 2026-05-06 12:12 | -33.95067 | 151.18315 | 25 ft | 29 kts | 76° |
| 2026-05-06 12:12 | -33.95055 | 151.18378 | 25 ft | 0 kts | 77° |
| 2026-05-06 12:13 | -33.95053 | 151.18388 | 25 ft | 3 kts | 77° |
| 2026-05-06 12:13 | -33.95047 | 151.18434 | 24 ft | 8 kts | 90° |
| 2026-05-06 12:14 | -33.95083 | 151.18510 | 23 ft | 13 kts | 136° |
| 2026-05-06 12:14 | -33.95171 | 151.18604 | 21 ft | 19 kts | 140° |
| 2026-05-06 12:14 | -33.95300 | 151.18716 | 19 ft | 25 kts | 156° |
| 2026-05-06 12:14 | -33.95494 | 151.18770 | 17 ft | 31 kts | 167° |
| 2026-05-06 12:15 | -33.95726 | 151.18823 | 15 ft | 36 kts | 168° |
| 2026-05-06 12:15 | -33.95982 | 151.18893 | 15 ft | 37 kts | 174° |
| 2026-05-06 12:15 | -33.96234 | 151.18959 | 15 ft | 36 kts | 166° |
| 2026-05-06 12:15 | -33.96483 | 151.19023 | 17 ft | 32 kts | 169° |
| 2026-05-06 12:16 | -33.96705 | 151.19078 | 18 ft | 31 kts | 179° |
| 2026-05-06 12:16 | -33.96921 | 151.19092 | 18 ft | 31 kts | 167° |
| 2026-05-06 12:16 | -33.97115 | 151.19159 | 18 ft | 21 kts | 137° |
| 2026-05-06 12:16 | -33.97127 | 151.19241 | 18 ft | 0 kts | 77° |
| 2026-05-06 12:17 | -33.97124 | 151.19260 | 18 ft | 6 kts | 77° |
| 2026-05-06 12:18 | -33.97100 | 151.19334 | 18 ft | 10 kts | 56° |
| 2026-05-06 12:18 | -33.97033 | 151.19368 | 18 ft | 11 kts | 356° |
| 2026-05-06 12:18 | -33.96994 | 151.19360 | 18 ft | 0 kts | 349° |
| 2026-05-06 12:19 | -33.96991 | 151.19360 | 18 ft | 4 kts | 349° |
| 2026-05-06 12:19 | -33.96683 | 151.19282 | 19 ft | 90 kts | 348° |
| 2026-05-06 12:20 | -33.95798 | 151.19049 | 17 ft | 168 kts | 348° |
| 2026-05-06 12:20 | -33.94472 | 151.18704 | 378 ft | 204 kts | 350° |
| 2026-05-06 12:20 | -33.93177 | 151.18573 | 1390 ft | 183 kts | 12° |
| 2026-05-06 12:20 | -33.91989 | 151.19186 | 1919 ft | 195 kts | 39° |
| 2026-05-06 12:21 | -33.91190 | 151.20566 | 2362 ft | 214 kts | 71° |
| 2026-05-06 12:21 | -33.91212 | 151.22401 | 2913 ft | 231 kts | 107° |
| 2026-05-06 12:21 | -33.91916 | 151.24162 | 3684 ft | 234 kts | 114° |
| 2026-05-06 12:21 | -33.92672 | 151.25894 | 4357 ft | 239 kts | 115° |
| 2026-05-06 12:22 | -33.93452 | 151.27683 | 5062 ft | 242 kts | 113° |
| 2026-05-06 12:22 | -33.93885 | 151.29640 | 5721 ft | 240 kts | 91° |
| 2026-05-06 12:22 | -33.93873 | 151.31656 | 6404 ft | 242 kts | 85° |
| 2026-05-06 12:22 | -33.93792 | 151.33664 | 7072 ft | 244 kts | 85° |
| 2026-05-06 12:23 | -33.93852 | 151.35733 | 7623 ft | 255 kts | 103° |
| 2026-05-06 12:23 | -33.94710 | 151.37709 | 7989 ft | 277 kts | 133° |
| 2026-05-06 12:23 | -33.96414 | 151.38945 | 8395 ft | 296 kts | 165° |
| 2026-05-06 12:23 | -33.98510 | 151.38969 | 8727 ft | 315 kts | 194° |
| 2026-05-06 12:24 | -34.00560 | 151.37788 | 9080 ft | 331 kts | 217° |
| 2026-05-06 12:24 | -34.02393 | 151.35968 | 9500 ft | 346 kts | 221° |
| 2026-05-06 12:24 | -34.04233 | 151.34033 | 9933 ft | 360 kts | 221° |
| 2026-05-06 12:24 | -34.06155 | 151.32002 | 10324 ft | 374 kts | 221° |
| 2026-05-06 12:25 | -34.08133 | 151.29912 | 10736 ft | 386 kts | 221° |
| 2026-05-06 12:25 | -34.10176 | 151.27750 | 11349 ft | 392 kts | 221° |
| 2026-05-06 12:25 | -34.12236 | 151.25568 | 12002 ft | 396 kts | 221° |
| 2026-05-06 12:25 | -34.14328 | 151.23352 | 12636 ft | 400 kts | 221° |
| 2026-05-06 12:26 | -34.16466 | 151.21085 | 13282 ft | 404 kts | 221° |
| 2026-05-06 12:26 | -34.18563 | 151.18858 | 13907 ft | 408 kts | 221° |
| 2026-05-06 12:26 | -34.20753 | 151.16534 | 14528 ft | 412 kts | 221° |
| 2026-05-06 12:26 | -34.22909 | 151.14244 | 15117 ft | 416 kts | 221° |
| 2026-05-06 12:27 | -34.25111 | 151.11902 | 15729 ft | 419 kts | 221° |
| 2026-05-06 12:27 | -34.27325 | 151.09546 | 16346 ft | 421 kts | 221° |
| 2026-05-06 12:27 | -34.29525 | 151.07204 | 16896 ft | 425 kts | 221° |
| 2026-05-06 12:27 | -34.31775 | 151.04807 | 17450 ft | 429 kts | 221° |
| 2026-05-06 12:28 | -34.34045 | 151.02387 | 18009 ft | 432 kts | 222° |
| 2026-05-06 12:28 | -34.36317 | 150.99962 | 18573 ft | 434 kts | 222° |
| 2026-05-06 12:28 | -34.38595 | 150.97528 | 19122 ft | 437 kts | 222° |
| 2026-05-06 12:28 | -34.40874 | 150.95091 | 19670 ft | 439 kts | 222° |
| 2026-05-06 12:29 | -34.43199 | 150.92606 | 20193 ft | 442 kts | 222° |
| 2026-05-06 12:29 | -34.45494 | 150.90149 | 20673 ft | 445 kts | 222° |
| 2026-05-06 12:29 | -34.47845 | 150.87630 | 21173 ft | 448 kts | 222° |
| 2026-05-06 12:29 | -34.50191 | 150.85115 | 21652 ft | 450 kts | 222° |
| 2026-05-06 12:30 | -34.52558 | 150.82575 | 22132 ft | 453 kts | 222° |
| 2026-05-06 12:30 | -34.54882 | 150.80039 | 22593 ft | 455 kts | 225° |
| 2026-05-06 12:30 | -34.56975 | 150.77119 | 23026 ft | 457 kts | 233° |
| 2026-05-06 12:30 | -34.58886 | 150.73996 | 23459 ft | 459 kts | 234° |
| 2026-05-06 12:31 | -34.60772 | 150.70868 | 23893 ft | 462 kts | 234° |
| 2026-05-06 12:31 | -34.62663 | 150.67726 | 24336 ft | 463 kts | 234° |
| 2026-05-06 12:31 | -34.64583 | 150.64537 | 24766 ft | 465 kts | 233° |
| 2026-05-06 12:31 | -34.66492 | 150.61362 | 25152 ft | 468 kts | 233° |
| 2026-05-06 12:32 | -34.68407 | 150.58176 | 25506 ft | 471 kts | 233° |
| 2026-05-06 12:32 | -34.70357 | 150.54927 | 25857 ft | 473 kts | 233° |
| 2026-05-06 12:32 | -34.72277 | 150.51726 | 26176 ft | 475 kts | 233° |
| 2026-05-06 12:32 | -34.74245 | 150.48445 | 26506 ft | 477 kts | 233° |
| 2026-05-06 12:33 | -34.76198 | 150.45183 | 26804 ft | 479 kts | 233° |
| 2026-05-06 12:33 | -34.78182 | 150.41867 | 27080 ft | 481 kts | 233° |
| 2026-05-06 12:33 | -34.80140 | 150.38592 | 27355 ft | 483 kts | 233° |
| 2026-05-06 12:33 | -34.82126 | 150.35266 | 27620 ft | 484 kts | 232° |
| 2026-05-06 12:34 | -34.84094 | 150.31970 | 27854 ft | 486 kts | 233° |
| 2026-05-06 12:34 | -34.86086 | 150.28628 | 27937 ft | 491 kts | 233° |
| 2026-05-06 12:34 | -34.88115 | 150.25223 | 27939 ft | 498 kts | 233° |
| 2026-05-06 12:34 | -34.90166 | 150.21776 | 27940 ft | 504 kts | 233° |
| 2026-05-06 12:35 | -34.92228 | 150.18309 | 27943 ft | 508 kts | 233° |
| 2026-05-06 12:35 | -34.94305 | 150.14810 | 27941 ft | 512 kts | 233° |
| 2026-05-06 12:35 | -34.96415 | 150.11255 | 27940 ft | 515 kts | 233° |
| 2026-05-06 12:35 | -34.98489 | 150.07754 | 27941 ft | 516 kts | 233° |
| 2026-05-06 12:36 | -35.00593 | 150.04201 | 27939 ft | 517 kts | 233° |
| 2026-05-06 12:36 | -35.02704 | 150.00632 | 27939 ft | 518 kts | 233° |
| 2026-05-06 12:36 | -35.04807 | 149.97073 | 27939 ft | 518 kts | 233° |
| 2026-05-06 12:36 | -35.06915 | 149.93501 | 27940 ft | 518 kts | 233° |
| 2026-05-06 12:37 | -35.09005 | 149.89958 | 27941 ft | 518 kts | 233° |
| 2026-05-06 12:37 | -35.11124 | 149.86359 | 27944 ft | 518 kts | 233° |
| 2026-05-06 12:37 | -35.13249 | 149.82748 | 27946 ft | 518 kts | 233° |
| 2026-05-06 12:37 | -35.15353 | 149.79169 | 27947 ft | 518 kts | 233° |
| 2026-05-06 12:38 | -35.17454 | 149.75592 | 27947 ft | 518 kts | 233° |
| 2026-05-06 12:38 | -35.19555 | 149.72011 | 27947 ft | 518 kts | 233° |
| 2026-05-06 12:38 | -35.21635 | 149.68460 | 27948 ft | 517 kts | 233° |
| 2026-05-06 12:38 | -35.23718 | 149.64902 | 27949 ft | 504 kts | 233° |
| 2026-05-06 12:39 | -35.25745 | 149.61435 | 27949 ft | 493 kts | 233° |
| 2026-05-06 12:39 | -35.27743 | 149.58017 | 27950 ft | 488 kts | 233° |
| 2026-05-06 12:39 | -35.29726 | 149.54619 | 27951 ft | 487 kts | 233° |
| 2026-05-06 12:39 | -35.31702 | 149.51231 | 27951 ft | 487 kts | 233° |
| 2026-05-06 12:40 | -35.33680 | 149.47836 | 27951 ft | 487 kts | 233° |
| 2026-05-06 12:40 | -35.35656 | 149.44444 | 27951 ft | 487 kts | 233° |
| 2026-05-06 12:40 | -35.37612 | 149.41080 | 27950 ft | 487 kts | 233° |
| 2026-05-06 12:40 | -35.39605 | 149.37650 | 27950 ft | 487 kts | 233° |
| 2026-05-06 12:41 | -35.41577 | 149.34253 | 27949 ft | 487 kts | 233° |
| 2026-05-06 12:41 | -35.43539 | 149.30867 | 27949 ft | 487 kts | 233° |
| 2026-05-06 12:41 | -35.45525 | 149.27440 | 27948 ft | 487 kts | 233° |
| 2026-05-06 12:41 | -35.47498 | 149.24031 | 27948 ft | 487 kts | 234° |
| 2026-05-06 12:42 | -35.49466 | 149.20627 | 27948 ft | 487 kts | 234° |
| 2026-05-06 12:42 | -35.51436 | 149.17217 | 27949 ft | 487 kts | 233° |
| 2026-05-06 12:42 | -35.53417 | 149.13782 | 27949 ft | 487 kts | 234° |
| 2026-05-06 12:42 | -35.55367 | 149.10399 | 27950 ft | 487 kts | 234° |
| 2026-05-06 12:43 | -35.57349 | 149.06958 | 27950 ft | 487 kts | 233° |
| 2026-05-06 12:43 | -35.59316 | 149.03540 | 27951 ft | 487 kts | 234° |
| 2026-05-06 12:43 | -35.61275 | 149.00130 | 27951 ft | 487 kts | 233° |
| 2026-05-06 12:43 | -35.63244 | 148.96699 | 27952 ft | 487 kts | 233° |
| 2026-05-06 12:44 | -35.65207 | 148.93277 | 27954 ft | 487 kts | 234° |
| 2026-05-06 12:44 | -35.67155 | 148.89879 | 27955 ft | 487 kts | 233° |
| 2026-05-06 12:44 | -35.68476 | 148.87572 | 27956 ft | 487 kts | 234° |